Airport Name : Bornholm Ronne

Other Name : Bornholm Ronne

ICAO : EKRN

IATA : RNN

FAA :

Latitude : 55.063267

Longitude : 14.759558

Country : Denmark

Local Date and Time : 22 May 2024 22:09

 

TAF (Terminal Aerodrome Forecast)

TAF EKRN 221709Z 2218/2303 07018KT 9999 FEW200 TEMPO 2218/2223 08018G29KT TEMPO 2223/2303 09012G24KT

 

METAR (METeorological Aerodrome Report)

EKRN 221950Z AUTO 06015KT 9999 NCD 15/11 Q1011

EKRN 221920Z AUTO 06015KT 9999 NCD 16/11 Q1011

EKRN 221850Z AUTO 06016KT 9999 NCD 16/11 Q1011

EKRN 221820Z AUTO 06017KT 9999 NCD 16/11 Q1010

EKRN 221750Z AUTO 06015KT 9999 NCD 17/11 Q1010

EKRN 221720Z AUTO 06016KT 9999 NCD 17/12 Q1010

EKRN 221650Z AUTO 06017KT 9999 NCD 18/12 Q1010

EKRN 221620Z AUTO 06019KT 9999 NCD 18/12 Q1010